createdAt,value
2023-05-18T00:00:16.371Z,3.65
2023-05-18T00:03:23.348Z,2.63
2023-05-18T00:06:27.984Z,3.63
2023-05-18T00:09:39.348Z,3.22
2023-05-18T00:12:43.888Z,3.22
2023-05-18T00:15:54.024Z,2.45
2023-05-18T00:18:56.662Z,2.97
2023-05-18T00:22:02.306Z,2.85
2023-05-18T00:25:07.736Z,3.72
2023-05-18T00:28:12.734Z,2.78
2023-05-18T00:31:15.025Z,2.55
2023-05-18T00:34:22.149Z,2.38
2023-05-18T00:37:24.506Z,2.97
2023-05-18T00:40:30.082Z,4.03
2023-05-18T00:46:36.711Z,4.53
2023-05-18T00:49:39.073Z,5.30
2023-05-18T00:52:44.114Z,4.88
2023-05-18T00:55:46.451Z,2.60
2023-05-18T00:58:49.470Z,4.53
2023-05-18T01:01:57.052Z,3.03
2023-05-18T01:05:06.022Z,3.30
2023-05-18T01:08:13.207Z,3.35
2023-05-18T01:11:19.840Z,4.43
2023-05-18T01:14:31.939Z,2.60
2023-05-18T01:17:47.483Z,2.95
2023-05-18T01:20:57.648Z,2.92
2023-05-18T01:24:26.067Z,3.45
2023-05-18T01:27:28.594Z,2.67
2023-05-18T01:30:31.214Z,2.85
2023-05-18T01:33:33.560Z,3.75
2023-05-18T01:36:39.480Z,5.15
2023-05-18T01:39:42.386Z,3.58
2023-05-18T01:42:56.331Z,2.95
2023-05-18T01:46:05.856Z,2.15
2023-05-18T01:49:21.367Z,2.78
2023-05-18T01:52:32.207Z,2.78
2023-05-18T01:55:36.989Z,4.45
2023-05-18T01:58:42.387Z,2.92
2023-05-18T02:01:45.327Z,2.38
2023-05-18T02:04:51.336Z,3.05
2023-05-18T02:07:55.979Z,4.50
2023-05-18T02:10:58.771Z,2.67
2023-05-18T02:14:01.540Z,2.80
2023-05-18T02:17:04.153Z,2.83
2023-05-18T02:20:10.028Z,3.53
2023-05-18T02:23:12.333Z,2.88
2023-05-18T02:26:14.653Z,3.25
2023-05-18T02:29:21.561Z,3.25
2023-05-18T02:32:26.388Z,3.13
2023-05-18T02:35:29.037Z,2.55
2023-05-18T02:38:34.190Z,2.90
2023-05-18T02:41:39.990Z,2.60
2023-05-18T02:44:42.669Z,3.58
2023-05-18T02:47:50.119Z,2.25
2023-05-18T02:50:53.033Z,2.88
2023-05-18T02:54:00.668Z,2.30
2023-05-18T02:57:06.333Z,3.70
2023-05-18T03:00:17.780Z,2.58
2023-05-18T03:03:27.774Z,2.60
2023-05-18T03:06:32.638Z,2.72
2023-05-18T03:09:35.001Z,2.55
2023-05-18T03:12:38.491Z,2.42
2023-05-18T03:15:45.580Z,2.60
2023-05-18T03:18:50.104Z,3.00
2023-05-18T03:21:54.204Z,2.78
2023-05-18T03:24:58.917Z,2.88
2023-05-18T03:28:04.944Z,2.65
2023-05-18T03:31:11.145Z,1.75
2023-05-18T03:34:16.159Z,3.13
2023-05-18T03:37:21.652Z,1.45
2023-05-18T03:40:24.899Z,2.53
2023-05-18T03:43:32.518Z,2.00
2023-05-18T03:46:38.902Z,1.95
2023-05-18T03:49:43.559Z,1.52
2023-05-18T03:52:46.221Z,1.95
2023-05-18T03:55:52.457Z,3.10
2023-05-18T03:58:58.534Z,2.63
2023-05-18T04:02:01.408Z,2.22
2023-05-18T04:05:09.897Z,2.20
2023-05-18T04:08:14.895Z,2.33
2023-05-18T04:11:17.247Z,2.67
2023-05-18T04:14:24.628Z,3.15
2023-05-18T04:17:27.028Z,1.55
2023-05-18T04:20:32.171Z,1.83
2023-05-18T04:23:38.996Z,2.10
2023-05-18T04:26:44.403Z,2.33
2023-05-18T04:29:47.454Z,2.55
2023-05-18T04:32:51.260Z,1.77
2023-05-18T04:35:58.857Z,1.40
2023-05-18T04:39:07.800Z,3.35
2023-05-18T04:42:14.108Z,2.72
2023-05-18T04:45:19.643Z,3.05
2023-05-18T04:48:26.657Z,2.25
2023-05-18T04:51:34.853Z,5.18
2023-05-18T04:54:37.230Z,2.83
2023-05-18T04:57:39.705Z,2.67
2023-05-18T05:00:43.171Z,2.80
2023-05-18T05:03:46.696Z,2.83
2023-05-18T05:06:49.134Z,2.70
2023-05-18T05:09:54.231Z,3.30
2023-05-18T05:12:56.681Z,2.78
2023-05-18T05:16:00.019Z,2.38
2023-05-18T05:19:04.826Z,5.53
2023-05-18T05:22:07.342Z,3.10
2023-05-18T05:25:10.258Z,3.22
2023-05-18T05:28:13.157Z,3.22
2023-05-18T05:31:16.560Z,2.72
2023-05-18T05:34:19.591Z,2.95
2023-05-18T05:37:22.176Z,3.47
2023-05-18T05:40:25.698Z,3.30
2023-05-18T05:43:31.043Z,3.05
2023-05-18T05:46:33.454Z,3.22
2023-05-18T05:49:39.469Z,3.30
2023-05-18T05:52:42.273Z,2.95
2023-05-18T05:55:49.328Z,4.05
2023-05-18T05:58:57.048Z,3.33
2023-05-18T06:02:02.732Z,5.90
2023-05-18T06:08:10.906Z,3.40
2023-05-18T06:11:13.559Z,3.35
2023-05-18T06:14:18.803Z,3.25
2023-05-18T06:17:27.721Z,3.05
2023-05-18T06:20:32.930Z,3.53
2023-05-18T06:23:39.468Z,3.78
2023-05-18T06:26:54.948Z,3.88
2023-05-18T06:30:13.026Z,3.00
2023-05-18T06:33:34.605Z,3.75
2023-05-18T06:36:38.164Z,5.13
2023-05-18T06:39:40.765Z,2.95
2023-05-18T06:42:43.784Z,2.72
2023-05-18T06:46:05.081Z,2.70
2023-05-18T06:49:14.414Z,2.92
2023-05-18T06:52:16.876Z,3.00
2023-05-18T06:55:23.399Z,3.33
2023-05-18T07:01:33.821Z,2.28
2023-05-18T07:04:38.586Z,2.10
2023-05-18T07:07:43.538Z,1.42
2023-05-18T07:10:48.187Z,1.38
2023-05-18T07:13:52.885Z,2.35
2023-05-18T07:16:55.812Z,1.90
2023-05-18T07:20:00.697Z,2.08
2023-05-18T07:23:05.257Z,2.55
2023-05-18T07:26:14.456Z,1.58
2023-05-18T07:29:16.947Z,1.45
2023-05-18T07:32:21.954Z,1.50
2023-05-18T07:35:29.210Z,1.70
2023-05-18T07:38:34.312Z,1.85
2023-05-18T07:41:36.861Z,1.70
2023-05-18T07:44:44.399Z,5.38
2023-05-18T07:47:46.726Z,4.93
2023-05-18T07:50:51.730Z,1.38
2023-05-18T07:53:58.862Z,2.15
2023-05-18T07:57:04.317Z,1.27
2023-05-18T08:00:09.158Z,6.82
2023-05-18T08:03:21.226Z,5.00
2023-05-18T08:06:26.169Z,3.85
2023-05-18T08:09:33.252Z,3.13
2023-05-18T08:12:37.937Z,1.70
2023-05-18T08:15:43.136Z,1.60
2023-05-18T08:18:47.806Z,9.13
2023-05-18T08:21:52.421Z,3.45
2023-05-18T08:24:54.839Z,5.50
2023-05-18T08:28:01.981Z,3.42
2023-05-18T08:31:04.482Z,4.95
2023-05-18T08:34:08.148Z,3.42
2023-05-18T08:37:12.862Z,3.03
2023-05-18T08:40:15.749Z,2.05
2023-05-18T08:43:23.252Z,1.45
2023-05-18T08:46:38.905Z,4.28
2023-05-18T08:49:42.609Z,2.08
2023-05-18T08:52:48.732Z,1.27
2023-05-18T08:55:54.475Z,3.83
2023-05-18T08:58:58.069Z,3.15
2023-05-18T09:02:00.590Z,1.77
2023-05-18T09:05:09.022Z,2.95
2023-05-18T09:08:12.424Z,5.15
2023-05-18T09:11:18.818Z,6.85
2023-05-18T09:14:26.096Z,2.22
2023-05-18T09:17:28.546Z,1.88
2023-05-18T09:20:35.078Z,2.88
2023-05-18T09:23:41.607Z,2.08
2023-05-18T09:26:43.981Z,1.50
2023-05-18T09:29:57.214Z,2.03
2023-05-18T09:32:59.631Z,4.82
2023-05-18T09:36:04.279Z,3.08
2023-05-18T09:39:11.811Z,2.05
2023-05-18T09:42:14.148Z,1.83
2023-05-18T09:45:26.752Z,2.58
2023-05-18T09:48:29.269Z,2.63
2023-05-18T09:51:35.678Z,2.17
2023-05-18T09:54:40.255Z,2.45
2023-05-18T09:57:49.945Z,4.07
2023-05-18T10:01:00.800Z,1.90
2023-05-18T10:04:08.874Z,3.10
2023-05-18T10:07:15.638Z,1.90
2023-05-18T10:10:21.666Z,1.58
2023-05-18T10:13:29.373Z,2.05
2023-05-18T10:16:34.261Z,2.38
2023-05-18T10:19:43.464Z,1.95
2023-05-18T10:22:54.314Z,1.90
2023-05-18T10:25:57.430Z,2.53
2023-05-18T10:29:00.625Z,1.80
2023-05-18T10:32:08.121Z,1.40
2023-05-18T10:35:16.273Z,1.70
2023-05-18T10:38:30.894Z,2.75
2023-05-18T10:41:37.059Z,1.75
2023-05-18T10:44:40.776Z,2.85
2023-05-18T10:47:46.963Z,1.17
2023-05-18T10:50:56.087Z,1.80
2023-05-18T10:54:14.570Z,1.85
2023-05-18T10:57:20.872Z,1.70
2023-05-18T11:00:26.030Z,1.65
2023-05-18T11:03:28.928Z,1.85
2023-05-18T11:06:33.635Z,1.83
2023-05-18T11:09:42.756Z,2.22
2023-05-18T11:12:46.327Z,6.18
2023-05-18T11:15:55.258Z,2.60
2023-05-18T11:19:11.474Z,1.83
2023-05-18T11:22:18.718Z,2.83
2023-05-18T11:25:34.000Z,1.80
2023-05-18T11:28:43.654Z,3.63
2023-05-18T11:32:05.266Z,2.83
2023-05-18T11:35:22.543Z,2.38
2023-05-18T11:38:55.831Z,2.10
2023-05-18T11:42:18.725Z,6.30
2023-05-18T11:45:24.069Z,1.88
2023-05-18T11:48:31.615Z,2.75
2023-05-18T11:51:34.224Z,1.80
2023-05-18T11:54:48.881Z,1.83
2023-05-18T11:57:56.189Z,2.20
2023-05-18T12:01:02.957Z,2.30
2023-05-18T12:04:06.314Z,2.03
2023-05-18T12:07:09.090Z,1.95
2023-05-18T12:10:14.667Z,2.20
2023-05-18T12:13:18.000Z,2.63
2023-05-18T12:16:21.803Z,2.75
2023-05-18T12:19:29.200Z,2.67
2023-05-18T12:22:33.781Z,2.65
2023-05-18T12:25:38.619Z,2.38
2023-05-18T12:28:40.951Z,2.03
2023-05-18T12:31:44.491Z,2.03
2023-05-18T12:34:47.086Z,1.98
2023-05-18T12:37:52.102Z,2.28
2023-05-18T12:40:59.242Z,2.28
2023-05-18T12:44:01.605Z,1.83
2023-05-18T12:47:04.290Z,1.65
2023-05-18T12:50:07.030Z,2.45
2023-05-18T12:53:14.218Z,1.23
2023-05-18T12:56:18.851Z,2.30
2023-05-18T12:59:26.473Z,2.10
2023-05-18T13:02:46.053Z,1.40
2023-05-18T13:06:07.717Z,2.15
2023-05-18T13:09:16.792Z,2.83
2023-05-18T13:12:40.706Z,2.33
2023-05-18T13:15:46.778Z,2.53
2023-05-18T13:18:58.947Z,2.58
2023-05-18T13:22:01.393Z,1.83
2023-05-18T13:25:03.897Z,2.10
2023-05-18T13:28:12.104Z,2.17
2023-05-18T13:31:14.453Z,1.60
2023-05-18T13:34:21.633Z,3.08
2023-05-18T13:37:26.364Z,4.63
2023-05-18T13:43:33.682Z,1.77
2023-05-18T13:46:38.646Z,1.92
2023-05-18T13:49:43.371Z,3.92
2023-05-18T13:52:46.484Z,2.33
2023-05-18T13:55:51.562Z,3.47
2023-05-18T13:58:53.879Z,2.47
2023-05-18T14:01:56.165Z,2.00
2023-05-18T14:04:58.980Z,2.20
2023-05-18T14:08:01.602Z,1.70
2023-05-18T14:11:04.095Z,3.20
2023-05-18T14:14:08.536Z,3.33
2023-05-18T14:17:17.813Z,2.53
2023-05-18T14:20:25.156Z,4.75
2023-05-18T14:23:28.003Z,2.58
2023-05-18T14:26:36.687Z,3.47
2023-05-18T14:29:41.605Z,2.67
2023-05-18T14:32:46.232Z,2.28
2023-05-18T14:35:51.389Z,2.47
2023-05-18T14:38:53.762Z,4.38
2023-05-18T14:41:56.220Z,2.30
2023-05-18T14:44:58.647Z,1.85
2023-05-18T14:48:05.375Z,2.85
2023-05-18T14:51:07.896Z,2.97
2023-05-18T14:54:15.513Z,1.90
2023-05-18T14:57:17.900Z,2.25
2023-05-18T15:00:23.199Z,1.73
2023-05-18T15:03:28.388Z,1.35
2023-05-18T15:06:36.020Z,2.13
2023-05-18T15:09:38.393Z,3.35
2023-05-18T15:12:42.956Z,2.00
2023-05-18T15:15:48.768Z,1.90
2023-05-18T15:18:54.065Z,1.30
2023-05-18T15:21:56.408Z,2.25
2023-05-18T15:25:01.558Z,1.80
2023-05-18T15:28:04.070Z,2.25
2023-05-18T15:31:09.784Z,4.32
2023-05-18T15:34:12.229Z,1.92
2023-05-18T15:37:16.712Z,1.95
2023-05-18T15:40:22.464Z,1.48
2023-05-18T15:43:26.198Z,3.20
2023-05-18T15:46:35.775Z,1.42
2023-05-18T15:49:40.344Z,1.70
2023-05-18T15:52:47.536Z,3.88
2023-05-18T15:55:58.596Z,3.08
2023-05-18T15:59:07.100Z,2.25
2023-05-18T16:02:14.105Z,2.63
2023-05-18T16:05:18.844Z,1.92
2023-05-18T16:08:21.267Z,3.03
2023-05-18T16:11:23.641Z,2.10
2023-05-18T16:14:28.536Z,3.17
2023-05-18T16:17:30.915Z,2.58
2023-05-18T16:20:33.588Z,1.42
2023-05-18T16:23:38.458Z,1.42
2023-05-18T16:26:43.037Z,2.75
2023-05-18T16:29:45.425Z,1.42
2023-05-18T16:32:48.084Z,1.70
2023-05-18T16:35:50.477Z,1.90
2023-05-18T16:38:53.315Z,1.63
2023-05-18T16:41:55.618Z,2.17
2023-05-18T16:45:02.768Z,2.40
2023-05-18T16:48:12.628Z,2.20
2023-05-18T16:51:17.384Z,2.60
2023-05-18T16:54:22.002Z,2.25
2023-05-18T16:57:27.385Z,1.80
2023-05-18T17:03:38.001Z,2.47
2023-05-18T17:06:42.758Z,2.63
2023-05-18T17:09:47.572Z,2.38
2023-05-18T17:12:49.869Z,3.20
2023-05-18T17:15:54.778Z,3.97
2023-05-18T17:18:57.822Z,2.33
2023-05-18T17:25:05.948Z,2.10
2023-05-18T17:28:13.824Z,2.97
2023-05-18T17:31:16.246Z,2.83
2023-05-18T17:34:22.143Z,2.90
2023-05-18T17:37:24.495Z,2.63
2023-05-18T17:40:29.825Z,3.30
2023-05-18T17:43:34.944Z,4.45
2023-05-18T17:46:37.322Z,2.95
2023-05-18T17:49:39.642Z,2.67
2023-05-18T17:52:46.814Z,6.55
2023-05-18T17:55:49.165Z,3.03
2023-05-18T17:58:59.317Z,2.67
2023-05-18T18:02:04.143Z,4.82
2023-05-18T18:05:09.784Z,3.00
2023-05-18T18:08:13.500Z,2.50
2023-05-18T18:11:21.728Z,2.58
2023-05-18T18:14:24.117Z,3.53
2023-05-18T18:17:26.798Z,2.75
2023-05-18T18:20:30.918Z,2.78
2023-05-18T18:23:34.385Z,2.38
2023-05-18T18:26:40.488Z,3.22
2023-05-18T18:29:46.351Z,3.38
2023-05-18T18:32:49.397Z,3.22
2023-05-18T18:35:52.941Z,2.92
2023-05-18T18:38:58.835Z,2.78
2023-05-18T18:42:06.284Z,2.88
2023-05-18T18:45:11.399Z,3.05
2023-05-18T18:48:21.096Z,5.13
2023-05-18T18:51:23.521Z,3.15
2023-05-18T18:54:26.397Z,2.95
2023-05-18T18:57:28.768Z,3.55
2023-05-18T19:00:34.104Z,3.35
2023-05-18T19:03:36.496Z,3.88
2023-05-18T19:06:39.431Z,3.90
2023-05-18T19:09:41.825Z,4.03
2023-05-18T19:12:44.189Z,4.25
2023-05-18T19:15:51.448Z,4.28
2023-05-18T19:18:54.276Z,4.70
2023-05-18T19:21:58.919Z,7.00
2023-05-18T19:25:04.245Z,3.03
2023-05-18T19:28:06.805Z,3.28
2023-05-18T19:31:10.332Z,3.88
2023-05-18T19:34:12.817Z,3.67
2023-05-18T19:37:15.246Z,3.53
2023-05-18T19:40:21.585Z,4.28
2023-05-18T19:43:31.642Z,5.50
2023-05-18T19:46:34.681Z,3.47
2023-05-18T19:49:37.074Z,2.83
2023-05-18T19:52:44.081Z,3.70
2023-05-18T19:55:51.322Z,5.93
2023-05-18T19:58:57.807Z,3.95
2023-05-18T20:02:03.644Z,3.92
2023-05-18T20:05:07.188Z,3.63
2023-05-18T20:08:10.097Z,3.47
2023-05-18T20:11:19.271Z,4.30
2023-05-18T20:14:27.072Z,4.88
2023-05-18T20:17:29.552Z,4.05
2023-05-18T20:20:33.212Z,3.83
2023-05-18T20:23:35.824Z,4.63
2023-05-18T20:26:39.634Z,4.32
2023-05-18T20:29:42.441Z,4.18
2023-05-18T20:32:44.947Z,3.67
2023-05-18T20:35:47.314Z,3.45
2023-05-18T20:38:53.375Z,4.10
2023-05-18T20:41:57.679Z,3.83
2023-05-18T20:45:00.146Z,4.13
2023-05-18T20:48:03.547Z,3.53
2023-05-18T20:51:06.703Z,6.05
2023-05-18T20:54:16.479Z,4.07
2023-05-18T20:57:21.339Z,5.68
2023-05-18T21:00:26.015Z,3.78
2023-05-18T21:03:30.482Z,3.88
2023-05-18T21:06:36.333Z,4.63
2023-05-18T21:09:40.929Z,3.40
2023-05-18T21:12:43.671Z,4.90
2023-05-18T21:15:48.398Z,4.50
2023-05-18T21:18:53.066Z,7.57
2023-05-18T21:21:57.712Z,3.55
2023-05-18T21:25:00.040Z,4.13
2023-05-18T21:28:02.499Z,5.47
2023-05-18T21:31:09.812Z,6.00
2023-05-18T21:34:12.218Z,5.65
2023-05-18T21:37:15.018Z,6.10
2023-05-18T21:40:17.410Z,4.18
2023-05-18T21:43:24.430Z,5.43
2023-05-18T21:46:27.422Z,6.68
2023-05-18T21:49:32.029Z,6.15
2023-05-18T21:52:37.143Z,6.75
2023-05-18T21:55:41.954Z,6.15
2023-05-18T21:58:44.275Z,6.32
2023-05-18T22:01:46.745Z,6.47
2023-05-18T22:04:49.095Z,7.75
2023-05-18T22:07:52.212Z,9.77
2023-05-18T22:10:54.609Z,8.27
2023-05-18T22:13:59.157Z,8.35
2023-05-18T22:17:02.234Z,5.88
2023-05-18T22:20:06.528Z,6.75
2023-05-18T22:23:11.591Z,6.35
2023-05-18T22:26:14.016Z,8.57
2023-05-18T22:29:16.954Z,8.10
2023-05-18T22:32:19.400Z,7.47
2023-05-18T22:35:24.238Z,6.13
2023-05-18T22:38:26.884Z,6.45
2023-05-18T22:41:31.672Z,7.97
2023-05-18T22:44:33.949Z,6.57
2023-05-18T22:47:36.336Z,9.52
2023-05-18T22:50:40.965Z,9.30
2023-05-18T22:53:43.259Z,8.45
2023-05-18T22:56:46.240Z,7.10
2023-05-18T22:59:50.829Z,6.35
2023-05-18T23:02:53.673Z,7.35
2023-05-18T23:05:56.375Z,6.97
2023-05-18T23:09:03.280Z,5.20
2023-05-18T23:12:06.682Z,7.30
2023-05-18T23:15:12.364Z,5.05
2023-05-18T23:18:17.159Z,5.82
2023-05-18T23:21:21.514Z,6.07
2023-05-18T23:24:23.915Z,7.13
2023-05-18T23:27:26.196Z,5.47
2023-05-18T23:30:32.194Z,4.65
2023-05-18T23:33:37.473Z,4.10
2023-05-18T23:36:42.808Z,5.18
2023-05-18T23:39:53.450Z,6.63
2023-05-18T23:42:56.140Z,6.68
2023-05-18T23:46:01.483Z,5.43
2023-05-18T23:49:04.556Z,7.22
2023-05-18T23:52:07.950Z,4.20
2023-05-18T23:55:13.443Z,5.32
2023-05-18T23:58:19.279Z,3.70
